Terminal Aerodrome Forecast
Issued by NWS Austin/San Antonio, TX

Home | Current Version | Previous Version | Text Only | Print | Product List | Glossary On
Versions: 1 2 3 4 5 6 7 8 9 10 11 12 13 14 15 16 17 18
000
FTUS44 KEWX 280211 AAB
TAFDRT
TAF AMD
KDRT 280211Z 2802/2824 29006KT P6SM VCSH BKN050
     FM280400 10009KT P6SM BKN250
     FM281300 11008KT P6SM OVC007
     FM281500 12006KT P6SM BKN015
     FM281700 13008KT P6SM BKN025
     FM281800 07010KT P6SM SCT035 BKN250=

USA.gov is the U.S. government's official web portal to all federal, state and local government web resources and services.